createdAt,value
2023-02-28T00:00:54.931Z,1.13
2023-02-28T00:03:21.725Z,1.10
2023-02-28T00:05:48.432Z,0.93
2023-02-28T00:08:15.402Z,0.93
2023-02-28T00:10:42.042Z,1.97
2023-02-28T00:13:08.779Z,0.90
2023-02-28T00:15:35.504Z,2.17
2023-02-28T00:18:03.001Z,3.10
2023-02-28T00:20:30.473Z,2.47
2023-02-28T00:22:57.400Z,2.13
2023-02-28T00:25:25.651Z,1.23
2023-02-28T00:27:53.066Z,1.63
2023-02-28T00:30:22.034Z,1.30
2023-02-28T00:32:49.742Z,1.80
2023-02-28T00:35:17.047Z,1.20
2023-02-28T00:37:43.911Z,1.63
2023-02-28T00:40:12.458Z,1.30
2023-02-28T00:42:40.136Z,1.10
2023-02-28T00:45:09.218Z,1.00
2023-02-28T00:47:38.309Z,0.97
2023-02-28T00:50:05.869Z,1.20
2023-02-28T00:52:32.557Z,1.17
2023-02-28T00:54:59.222Z,1.20
2023-02-28T00:57:26.006Z,1.10
2023-02-28T00:59:55.060Z,1.10
2023-02-28T01:02:23.279Z,1.23
2023-02-28T01:04:50.381Z,1.13
2023-02-28T01:07:17.162Z,1.27
2023-02-28T01:09:43.844Z,1.10
2023-02-28T01:12:10.501Z,1.20
2023-02-28T01:14:37.873Z,1.20
2023-02-28T01:17:04.755Z,1.00
2023-02-28T01:19:32.325Z,1.07
2023-02-28T01:22:02.859Z,1.30
2023-02-28T01:24:29.727Z,1.50
2023-02-28T01:26:56.448Z,1.60
2023-02-28T01:29:23.215Z,1.30
2023-02-28T01:31:49.891Z,1.63
2023-02-28T01:34:16.580Z,1.43
2023-02-28T01:36:43.225Z,1.50
2023-02-28T01:39:11.067Z,1.27
2023-02-28T01:41:37.760Z,1.57
2023-02-28T01:44:27.337Z,1.40
2023-02-28T01:46:56.323Z,1.63
2023-02-28T01:49:23.023Z,1.30
2023-02-28T01:51:52.754Z,1.50
2023-02-28T01:54:24.901Z,1.40
2023-02-28T01:57:10.327Z,1.30
2023-02-28T01:59:49.714Z,1.50
2023-02-28T02:02:18.875Z,1.40
2023-02-28T02:05:12.840Z,1.67
2023-02-28T02:07:42.385Z,1.47
2023-02-28T02:10:22.715Z,1.70
2023-02-28T02:13:01.431Z,1.50
2023-02-28T02:15:48.309Z,1.60
2023-02-28T02:18:30.551Z,1.50
2023-02-28T02:21:21.336Z,1.83
2023-02-28T02:24:19.065Z,1.87
2023-02-28T02:27:12.719Z,1.70
2023-02-28T02:29:57.305Z,1.57
2023-02-28T02:33:06.847Z,1.50
2023-02-28T02:36:11.040Z,1.27
2023-02-28T02:39:06.934Z,1.50
2023-02-28T02:41:47.099Z,1.43
2023-02-28T02:44:27.904Z,1.67
2023-02-28T02:47:15.204Z,1.67
2023-02-28T02:49:48.309Z,1.60
2023-02-28T02:52:18.488Z,1.53
2023-02-28T02:54:49.231Z,1.63
2023-02-28T02:57:24.001Z,1.50
2023-02-28T02:59:52.522Z,1.40
2023-02-28T03:02:21.870Z,1.60
2023-02-28T03:04:54.461Z,1.40
2023-02-28T03:07:22.273Z,1.20
2023-02-28T03:09:56.730Z,1.40
2023-02-28T03:12:37.815Z,1.40
2023-02-28T03:15:07.660Z,1.57
2023-02-28T03:17:55.272Z,1.40
2023-02-28T03:20:31.243Z,1.70
2023-02-28T03:23:04.506Z,2.10
2023-02-28T03:25:31.144Z,1.67
2023-02-28T03:28:27.037Z,1.77
2023-02-28T03:31:04.680Z,1.40
2023-02-28T03:33:35.551Z,2.07
2023-02-28T03:36:11.496Z,2.13
2023-02-28T03:38:40.614Z,2.50
2023-02-28T03:41:18.584Z,4.33
2023-02-28T03:44:10.051Z,2.17
2023-02-28T03:46:42.227Z,1.97
2023-02-28T03:49:21.332Z,3.03
2023-02-28T03:51:49.984Z,3.93
2023-02-28T03:54:25.073Z,2.80
2023-02-28T03:57:09.930Z,2.80
2023-02-28T03:59:45.365Z,3.97
2023-02-28T04:02:12.088Z,3.67
2023-02-28T04:04:38.918Z,2.17
2023-02-28T04:07:08.600Z,1.63
2023-02-28T04:09:35.538Z,3.73
2023-02-28T04:12:02.185Z,3.13
2023-02-28T04:14:28.861Z,3.30
2023-02-28T04:16:55.614Z,4.23
2023-02-28T04:19:22.291Z,2.30
2023-02-28T04:21:53.720Z,4.30
2023-02-28T04:24:25.828Z,3.00
2023-02-28T04:26:54.826Z,3.70
2023-02-28T04:29:33.179Z,2.27
2023-02-28T04:32:01.221Z,5.17
2023-02-28T04:34:29.416Z,4.10
2023-02-28T04:37:12.010Z,4.10
2023-02-28T04:39:40.185Z,3.50
2023-02-28T04:42:07.151Z,5.43
2023-02-28T04:44:33.837Z,2.87
2023-02-28T04:47:00.629Z,2.80
2023-02-28T04:49:27.473Z,2.77
2023-02-28T04:51:54.186Z,3.80
2023-02-28T04:54:21.094Z,2.70
2023-02-28T04:56:50.605Z,4.13
2023-02-28T04:59:17.447Z,3.80
2023-02-28T05:01:47.950Z,2.60
2023-02-28T05:04:15.085Z,2.40
2023-02-28T05:06:41.758Z,2.10
2023-02-28T05:09:08.447Z,2.20
2023-02-28T05:11:36.057Z,2.37
2023-02-28T05:14:05.239Z,2.40
2023-02-28T05:16:32.524Z,2.57
2023-02-28T05:18:59.881Z,2.27
2023-02-28T05:21:28.620Z,2.33
2023-02-28T05:23:57.000Z,2.30
2023-02-28T05:26:24.130Z,2.47
2023-02-28T05:28:50.896Z,2.40
2023-02-28T05:31:17.879Z,2.40
2023-02-28T05:33:44.610Z,2.43
2023-02-28T05:36:11.425Z,2.50
2023-02-28T05:38:39.009Z,2.77
2023-02-28T05:41:10.600Z,2.50
2023-02-28T05:43:38.062Z,2.63
2023-02-28T05:46:09.716Z,2.13
2023-02-28T05:48:38.413Z,3.00
2023-02-28T05:51:07.128Z,2.97
2023-02-28T05:53:34.710Z,2.43
2023-02-28T05:56:01.342Z,2.90
2023-02-28T05:58:31.644Z,2.83
2023-02-28T06:00:59.532Z,2.70
2023-02-28T06:03:26.528Z,2.70
2023-02-28T06:05:53.470Z,2.80
2023-02-28T06:08:20.454Z,3.10
2023-02-28T06:10:47.264Z,2.80
2023-02-28T06:13:13.980Z,2.93
2023-02-28T06:15:40.725Z,2.90
2023-02-28T06:18:08.270Z,2.77
2023-02-28T06:20:35.456Z,2.87
2023-02-28T06:23:02.158Z,2.90
2023-02-28T06:25:29.030Z,2.63
2023-02-28T06:27:56.414Z,2.63
2023-02-28T06:30:27.587Z,2.73
2023-02-28T06:32:55.310Z,3.03
2023-02-28T06:35:22.219Z,2.80
2023-02-28T06:37:49.135Z,2.67
2023-02-28T06:40:16.018Z,2.80
2023-02-28T06:42:42.905Z,2.93
2023-02-28T06:45:10.739Z,2.70
2023-02-28T06:47:39.265Z,3.53
2023-02-28T06:50:07.071Z,2.70
2023-02-28T06:52:37.059Z,2.33
2023-02-28T06:55:07.992Z,2.20
2023-02-28T06:57:36.073Z,2.57
2023-02-28T07:00:08.563Z,1.83
2023-02-28T07:02:36.759Z,2.33
2023-02-28T07:05:04.394Z,2.47
2023-02-28T07:07:31.305Z,2.20
2023-02-28T07:09:57.935Z,2.50
2023-02-28T07:12:24.715Z,2.40
2023-02-28T07:14:51.389Z,2.47
2023-02-28T07:17:18.093Z,2.10
2023-02-28T07:19:44.732Z,2.07
2023-02-28T07:22:11.411Z,2.80
2023-02-28T07:24:39.092Z,2.30
2023-02-28T07:27:05.904Z,2.53
2023-02-28T07:29:32.669Z,2.60
2023-02-28T07:31:59.390Z,2.13
2023-02-28T07:34:26.891Z,2.20
2023-02-28T07:36:55.007Z,2.33
2023-02-28T07:39:22.860Z,2.63
2023-02-28T07:41:49.506Z,2.40
2023-02-28T07:44:16.362Z,2.70
2023-02-28T07:46:43.106Z,2.07
2023-02-28T07:49:09.865Z,1.90
2023-02-28T07:51:36.638Z,2.30
2023-02-28T07:54:03.568Z,2.20
2023-02-28T07:56:30.548Z,2.00
2023-02-28T07:58:57.389Z,1.83
2023-02-28T08:01:24.153Z,2.40
2023-02-28T08:03:51.432Z,2.30
2023-02-28T08:06:21.747Z,2.17
2023-02-28T08:08:49.268Z,2.10
2023-02-28T08:11:17.013Z,2.30
2023-02-28T08:13:44.904Z,2.47
2023-02-28T08:16:15.212Z,2.50
2023-02-28T08:18:42.020Z,2.13
2023-02-28T08:21:09.806Z,2.10
2023-02-28T08:23:36.751Z,2.70
2023-02-28T08:26:03.982Z,2.60
2023-02-28T08:28:31.220Z,2.20
2023-02-28T08:30:57.936Z,1.80
2023-02-28T08:33:25.734Z,2.30
2023-02-28T08:35:56.501Z,2.33
2023-02-28T08:38:24.149Z,2.13
2023-02-28T08:40:50.885Z,2.50
2023-02-28T08:43:17.817Z,2.20
2023-02-28T08:45:44.644Z,2.23
2023-02-28T08:48:11.433Z,1.80
2023-02-28T08:50:38.059Z,2.13
2023-02-28T08:53:04.839Z,2.00
2023-02-28T08:55:31.692Z,2.10
2023-02-28T08:57:59.251Z,2.70
2023-02-28T09:00:26.199Z,2.57
2023-02-28T09:02:52.995Z,2.10
2023-02-28T09:05:19.788Z,2.17
2023-02-28T09:07:46.512Z,2.60
2023-02-28T09:10:13.387Z,2.27
2023-02-28T09:12:40.144Z,1.97
2023-02-28T09:15:07.689Z,2.20
2023-02-28T09:17:34.504Z,2.10
2023-02-28T09:20:01.211Z,2.00
2023-02-28T09:22:27.891Z,2.30
2023-02-28T09:24:54.517Z,2.73
2023-02-28T09:27:21.178Z,2.93
2023-02-28T09:29:47.926Z,2.70
2023-02-28T09:32:14.887Z,2.33
2023-02-28T09:34:41.852Z,2.60
2023-02-28T09:37:08.948Z,3.03
2023-02-28T09:39:35.673Z,2.27
2023-02-28T09:42:04.374Z,2.77
2023-02-28T09:44:45.198Z,2.60
2023-02-28T09:47:30.282Z,3.10
2023-02-28T09:49:59.552Z,3.20
2023-02-28T09:52:31.477Z,2.93
2023-02-28T09:55:16.801Z,3.00
2023-02-28T09:57:43.791Z,2.77
2023-02-28T10:00:24.230Z,3.07
2023-02-28T10:03:04.968Z,2.67
2023-02-28T10:05:42.334Z,2.90
2023-02-28T10:08:17.819Z,2.57
2023-02-28T10:10:53.685Z,3.10
2023-02-28T10:13:34.588Z,3.27
2023-02-28T10:16:12.622Z,2.90
2023-02-28T10:18:46.926Z,3.00
2023-02-28T10:21:26.141Z,3.10
2023-02-28T10:24:02.408Z,3.17
2023-02-28T10:26:32.121Z,3.30
2023-02-28T10:28:59.159Z,3.40
2023-02-28T10:31:26.471Z,3.57
2023-02-28T10:33:53.358Z,2.90
2023-02-28T10:36:22.665Z,3.50
2023-02-28T10:38:49.763Z,3.33
2023-02-28T10:41:29.335Z,2.90
2023-02-28T10:44:21.604Z,3.37
2023-02-28T10:46:49.628Z,4.03
2023-02-28T10:49:23.695Z,2.73
2023-02-28T10:51:55.302Z,3.30
2023-02-28T10:54:34.780Z,4.30
2023-02-28T10:57:16.297Z,3.80
2023-02-28T10:59:43.377Z,4.80
2023-02-28T11:02:36.695Z,4.03
2023-02-28T11:05:04.122Z,4.23
2023-02-28T11:07:41.491Z,5.57
2023-02-28T11:10:22.179Z,4.50
2023-02-28T11:12:52.997Z,3.80
2023-02-28T11:15:27.923Z,4.37
2023-02-28T11:18:21.198Z,3.67
2023-02-28T11:20:52.829Z,3.80
2023-02-28T11:23:21.434Z,3.90
2023-02-28T11:25:55.101Z,4.17
2023-02-28T11:28:32.249Z,3.77
2023-02-28T11:31:17.359Z,4.10
2023-02-28T11:33:51.345Z,3.93
2023-02-28T11:36:27.381Z,3.83
2023-02-28T11:38:57.100Z,3.83
2023-02-28T11:41:44.478Z,3.63
2023-02-28T11:44:37.665Z,3.60
2023-02-28T11:47:17.249Z,4.20
2023-02-28T11:50:14.334Z,3.70
2023-02-28T11:52:56.902Z,5.10
2023-02-28T11:55:37.680Z,4.63
2023-02-28T11:58:47.364Z,4.00
2023-02-28T12:01:35.847Z,5.67
2023-02-28T12:04:23.298Z,3.93
2023-02-28T12:07:04.903Z,4.50
2023-02-28T12:09:59.463Z,3.83
2023-02-28T12:12:44.949Z,3.93
2023-02-28T12:15:35.020Z,3.17
2023-02-28T12:18:07.885Z,3.33
2023-02-28T12:20:42.731Z,3.83
2023-02-28T12:23:21.298Z,3.40
2023-02-28T12:26:06.254Z,3.73
2023-02-28T12:28:42.114Z,3.80
2023-02-28T12:31:23.845Z,3.80
2023-02-28T12:34:03.701Z,4.47
2023-02-28T12:36:30.807Z,4.50
2023-02-28T12:39:02.549Z,7.50
2023-02-28T12:41:48.101Z,3.80
2023-02-28T12:44:26.848Z,4.70
2023-02-28T12:46:57.739Z,3.73
2023-02-28T12:49:51.001Z,3.50
2023-02-28T12:52:26.493Z,3.97
2023-02-28T12:55:07.152Z,4.93
2023-02-28T12:57:53.133Z,6.30
2023-02-28T13:00:23.929Z,3.87
2023-02-28T13:03:20.158Z,3.80
2023-02-28T13:06:13.805Z,3.93
2023-02-28T13:09:00.299Z,3.90
2023-02-28T13:11:34.084Z,3.90
2023-02-28T13:14:04.374Z,4.13
2023-02-28T13:16:58.065Z,4.13
2023-02-28T13:19:28.193Z,4.30
2023-02-28T13:21:56.326Z,3.60
2023-02-28T13:24:38.271Z,4.00
2023-02-28T13:27:05.042Z,4.03
2023-02-28T13:29:35.738Z,3.70
2023-02-28T13:32:11.209Z,4.10
2023-02-28T13:34:39.150Z,3.77
2023-02-28T13:37:23.997Z,4.00
2023-02-28T13:40:16.371Z,3.80
2023-02-28T13:42:50.594Z,4.53
2023-02-28T13:45:39.319Z,3.93
2023-02-28T13:48:19.041Z,4.13
2023-02-28T13:50:46.243Z,4.00
2023-02-28T13:53:15.886Z,4.40
2023-02-28T13:56:03.606Z,4.90
2023-02-28T13:58:56.397Z,3.97
2023-02-28T14:01:40.911Z,4.37
2023-02-28T14:04:37.323Z,4.03
2023-02-28T14:07:04.834Z,4.20
2023-02-28T14:10:06.396Z,3.90
2023-02-28T14:13:01.312Z,4.13
2023-02-28T14:15:34.307Z,4.30
2023-02-28T14:18:16.988Z,4.57
2023-02-28T14:20:46.551Z,3.83
2023-02-28T14:23:41.342Z,4.87
2023-02-28T14:26:35.086Z,4.70
2023-02-28T14:29:34.861Z,4.47
2023-02-28T14:32:23.925Z,3.97
2023-02-28T14:35:19.185Z,4.43
2023-02-28T14:37:46.516Z,6.63
2023-02-28T14:40:28.812Z,5.83
2023-02-28T14:42:58.433Z,4.30
2023-02-28T14:45:25.413Z,5.23
2023-02-28T14:47:52.980Z,5.67
2023-02-28T14:50:22.783Z,5.03
2023-02-28T14:52:54.184Z,5.53
2023-02-28T14:55:26.851Z,4.63
2023-02-28T14:57:57.354Z,5.03
2023-02-28T15:00:30.138Z,4.43
2023-02-28T15:02:58.585Z,4.60
2023-02-28T15:05:31.143Z,5.23
2023-02-28T15:08:11.319Z,4.47
2023-02-28T15:10:38.635Z,4.37
2023-02-28T15:13:12.752Z,4.87
2023-02-28T15:16:00.938Z,5.20
2023-02-28T15:18:51.507Z,4.63
2023-02-28T15:21:22.158Z,4.73
2023-02-28T15:24:07.640Z,4.20
2023-02-28T15:26:38.926Z,4.47
2023-02-28T15:29:17.620Z,4.17
2023-02-28T15:31:57.096Z,4.70
2023-02-28T15:34:44.116Z,5.17
2023-02-28T15:37:45.969Z,4.20
2023-02-28T15:40:15.100Z,5.13
2023-02-28T15:42:44.717Z,7.57
2023-02-28T15:45:39.183Z,5.60
2023-02-28T15:48:25.257Z,5.43
2023-02-28T15:51:03.275Z,7.67
2023-02-28T15:53:34.220Z,6.73
2023-02-28T15:56:07.555Z,4.33
2023-02-28T15:58:36.976Z,6.37
2023-02-28T16:01:19.914Z,5.47
2023-02-28T16:03:50.991Z,5.40
2023-02-28T16:06:17.617Z,5.13
2023-02-28T16:08:45.655Z,4.40
2023-02-28T16:11:12.442Z,4.87
2023-02-28T16:13:39.176Z,5.30
2023-02-28T16:16:06.097Z,4.93
2023-02-28T16:18:32.911Z,4.10
2023-02-28T16:20:59.840Z,4.80
2023-02-28T16:23:26.474Z,5.17
2023-02-28T16:25:53.406Z,4.40
2023-02-28T16:28:34.896Z,5.07
2023-02-28T16:31:06.026Z,5.00
2023-02-28T16:33:33.636Z,4.87
2023-02-28T16:36:01.178Z,4.67
2023-02-28T16:38:27.889Z,4.73
2023-02-28T16:40:58.834Z,4.37
2023-02-28T16:43:27.229Z,4.60
2023-02-28T16:46:01.206Z,4.27
2023-02-28T16:48:28.414Z,4.30
2023-02-28T16:50:55.133Z,4.47
2023-02-28T16:53:21.994Z,4.70
2023-02-28T16:55:48.809Z,4.37
2023-02-28T16:58:17.181Z,5.00
2023-02-28T17:00:44.619Z,5.10
2023-02-28T17:03:33.125Z,4.17
2023-02-28T17:06:01.143Z,20.63
2023-02-28T17:08:29.696Z,7.03
2023-02-28T17:10:56.803Z,4.93
2023-02-28T17:13:23.480Z,4.83
2023-02-28T17:15:50.568Z,4.33
2023-02-28T17:18:20.066Z,5.47
2023-02-28T17:20:47.211Z,5.00
2023-02-28T17:23:14.229Z,4.90
2023-02-28T17:25:40.940Z,5.07
2023-02-28T17:28:07.653Z,6.80
2023-02-28T17:30:35.308Z,6.33
2023-02-28T17:33:02.091Z,9.40
2023-02-28T17:35:29.272Z,4.97
2023-02-28T17:37:56.029Z,5.70
2023-02-28T17:40:24.551Z,5.00
2023-02-28T17:42:53.087Z,4.77
2023-02-28T17:45:20.688Z,5.07
2023-02-28T17:47:51.058Z,5.07
2023-02-28T17:50:21.782Z,5.03
2023-02-28T17:52:49.327Z,5.73
2023-02-28T17:55:16.150Z,5.20
2023-02-28T17:57:42.930Z,4.70
2023-02-28T18:00:14.410Z,4.60
2023-02-28T18:02:42.563Z,6.17
2023-02-28T18:05:09.780Z,7.23
2023-02-28T18:07:39.220Z,18.27
2023-02-28T18:10:07.641Z,8.80
2023-02-28T18:12:34.322Z,9.33
2023-02-28T18:15:01.203Z,11.40
2023-02-28T18:17:28.055Z,9.47
2023-02-28T18:19:54.770Z,7.57
2023-02-28T18:22:21.498Z,6.83
2023-02-28T18:24:48.252Z,5.73
2023-02-28T18:27:14.917Z,6.37
2023-02-28T18:29:41.910Z,5.90
2023-02-28T18:32:09.878Z,5.70
2023-02-28T18:34:36.831Z,5.03
2023-02-28T18:37:03.687Z,5.90
2023-02-28T18:39:32.273Z,6.03
2023-02-28T18:41:58.968Z,10.23
2023-02-28T18:44:25.642Z,10.27
2023-02-28T18:46:52.366Z,6.07
2023-02-28T18:49:19.441Z,5.17
2023-02-28T18:51:46.564Z,5.63
2023-02-28T18:54:14.679Z,5.40
2023-02-28T18:56:41.781Z,5.63
2023-02-28T18:59:08.513Z,5.60
2023-02-28T19:01:35.228Z,6.13
2023-02-28T19:04:04.023Z,5.97
2023-02-28T19:06:32.781Z,8.73
2023-02-28T19:09:01.510Z,8.67
2023-02-28T19:11:28.765Z,5.67
2023-02-28T19:13:56.541Z,5.90
2023-02-28T19:16:24.735Z,6.17
2023-02-28T19:18:51.814Z,6.20
2023-02-28T19:21:20.536Z,36.63
2023-02-28T19:23:47.412Z,15.63
2023-02-28T19:26:20.979Z,6.23
2023-02-28T19:28:47.870Z,14.13
2023-02-28T19:31:20.230Z,15.10
2023-02-28T19:33:47.038Z,11.33
2023-02-28T19:36:15.272Z,12.03
2023-02-28T19:38:44.385Z,5.90
2023-02-28T19:41:13.490Z,6.23
2023-02-28T19:43:40.606Z,5.00
2023-02-28T19:46:09.446Z,5.40
2023-02-28T19:48:36.478Z,6.53
2023-02-28T19:51:09.390Z,5.80
2023-02-28T19:53:37.747Z,5.10
2023-02-28T19:56:05.573Z,9.93
2023-02-28T19:58:33.054Z,7.33
2023-02-28T20:01:16.480Z,7.63
2023-02-28T20:03:46.699Z,6.40
2023-02-28T20:06:16.179Z,6.60
2023-02-28T20:08:43.337Z,6.23
2023-02-28T20:11:12.722Z,4.67
2023-02-28T20:13:39.435Z,6.13
2023-02-28T20:16:11.734Z,5.67
2023-02-28T20:18:40.354Z,5.17
2023-02-28T20:21:11.577Z,5.77
2023-02-28T20:23:39.629Z,5.63
2023-02-28T20:26:06.646Z,6.93
2023-02-28T20:28:33.311Z,5.47
2023-02-28T20:31:00.788Z,6.17
2023-02-28T20:33:27.803Z,5.80
2023-02-28T20:36:01.711Z,5.30
2023-02-28T20:38:28.832Z,5.90
2023-02-28T20:40:56.523Z,5.47
2023-02-28T20:43:23.942Z,4.93
2023-02-28T20:45:52.405Z,5.00
2023-02-28T20:48:19.172Z,5.17
2023-02-28T20:50:53.268Z,4.97
2023-02-28T20:53:20.212Z,6.40
2023-02-28T20:55:58.831Z,5.83
2023-02-28T20:58:27.769Z,6.10
2023-02-28T21:01:18.871Z,5.43
2023-02-28T21:03:51.299Z,4.97
2023-02-28T21:06:20.401Z,5.20
2023-02-28T21:08:47.182Z,4.93
2023-02-28T21:11:16.833Z,5.40
2023-02-28T21:13:44.829Z,5.30
2023-02-28T21:16:17.154Z,6.47
2023-02-28T21:18:44.679Z,6.93
2023-02-28T21:21:17.462Z,6.93
2023-02-28T21:23:46.544Z,7.30
2023-02-28T21:26:16.633Z,7.50
2023-02-28T21:28:46.383Z,7.40
2023-02-28T21:31:16.909Z,5.70
2023-02-28T21:33:45.163Z,7.13
2023-02-28T21:36:15.007Z,5.87
2023-02-28T21:38:42.975Z,8.23
2023-02-28T21:41:12.235Z,8.53
2023-02-28T21:43:39.725Z,7.47
2023-02-28T21:46:10.430Z,6.33
2023-02-28T21:48:38.164Z,7.53
2023-02-28T21:51:07.613Z,5.77
2023-02-28T21:53:36.418Z,7.20
2023-02-28T21:56:05.395Z,5.27
2023-02-28T21:58:35.030Z,7.27
2023-02-28T22:01:15.736Z,6.87
2023-02-28T22:03:43.458Z,8.17
2023-02-28T22:06:13.816Z,7.27
2023-02-28T22:08:42.205Z,7.03
2023-02-28T22:11:09.626Z,7.00
2023-02-28T22:13:37.527Z,7.07
2023-02-28T22:16:06.425Z,7.23
2023-02-28T22:18:36.875Z,7.90
2023-02-28T22:21:04.866Z,8.30
2023-02-28T22:23:31.909Z,8.37
2023-02-28T22:26:01.622Z,6.97
2023-02-28T22:28:30.419Z,7.37
2023-02-28T22:30:58.507Z,8.50
2023-02-28T22:33:26.611Z,8.73
2023-02-28T22:35:53.560Z,7.17
2023-02-28T22:38:20.543Z,9.83
2023-02-28T22:40:47.679Z,7.17
2023-02-28T22:43:14.439Z,7.87
2023-02-28T22:45:41.672Z,6.70
2023-02-28T22:48:09.467Z,6.97
2023-02-28T22:50:36.187Z,6.07
2023-02-28T22:53:02.830Z,6.27
2023-02-28T22:55:29.494Z,5.17
2023-02-28T22:57:56.194Z,5.50
2023-02-28T23:00:23.957Z,5.87
2023-02-28T23:02:50.618Z,5.57
2023-02-28T23:05:17.613Z,5.57
2023-02-28T23:07:44.290Z,5.87
2023-02-28T23:10:17.744Z,5.20
2023-02-28T23:12:50.813Z,6.50
2023-02-28T23:15:19.678Z,5.97
2023-02-28T23:17:47.208Z,5.67
2023-02-28T23:20:16.697Z,6.00
2023-02-28T23:22:50.394Z,5.63
2023-02-28T23:25:19.087Z,5.60
2023-02-28T23:27:46.324Z,6.63
2023-02-28T23:30:14.210Z,6.53
2023-02-28T23:32:41.672Z,7.80
2023-02-28T23:35:09.989Z,6.70
2023-02-28T23:37:38.449Z,5.70
2023-02-28T23:40:10.697Z,5.13
2023-02-28T23:42:37.535Z,6.23
2023-02-28T23:45:04.677Z,6.07
2023-02-28T23:47:32.452Z,6.03
2023-02-28T23:49:59.125Z,5.77
2023-02-28T23:52:25.882Z,5.33
2023-02-28T23:54:52.650Z,5.70
2023-02-28T23:57:19.508Z,5.83
2023-02-28T23:59:46.290Z,6.20
